Annabella, Utah
Current Conditions -  °F | °C
As of 4:55 PM on Sunday 23 Nov 2014 (Local Time) from KDTA Reporting Station
Clear Clear  
Wind Chill: 31°   Ceiling: Unl
Heat Index: 36°   Visibility: 10mi
Dew Point: 19°   Wind: 6mph
Humidity: 51%   Direction: 350°N
Pressure: 30.27"   Gusts: NA
Location:  38.71°N, 112.06°W
Report Text: KDTA 232355Z AUTO 35005KT 10SM CLR 02/M07 A3027 RMK AO1 T00211072 10351 21141
Loading
Personal Weather Stations






























Interactive Weather Map New forecast layout! Learn more

10-Day Weather Forecast

Advertisements
Track Severe Weather on mobile